sensor_id;sensor_type;location;lat;lon;timestamp;P1;durP1;ratioP1;P2;durP2;ratioP2
9200;SDS011;4635;48.686;9.008;2023-02-23T00:00:53;37.00;;;20.47;;
9200;SDS011;4635;48.686;9.008;2023-02-23T00:03:32;34.03;;;21.23;;
9200;SDS011;4635;48.686;9.008;2023-02-23T00:06:06;31.07;;;20.23;;
9200;SDS011;4635;48.686;9.008;2023-02-23T00:08:41;34.33;;;21.33;;
9200;SDS011;4635;48.686;9.008;2023-02-23T00:11:14;35.20;;;21.40;;
9200;SDS011;4635;48.686;9.008;2023-02-23T00:13:47;40.37;;;24.03;;
9200;SDS011;4635;48.686;9.008;2023-02-23T00:16:27;37.00;;;22.10;;
9200;SDS011;4635;48.686;9.008;2023-02-23T00:19:10;36.23;;;21.80;;
9200;SDS011;4635;48.686;9.008;2023-02-23T00:21:44;43.37;;;24.93;;
9200;SDS011;4635;48.686;9.008;2023-02-23T00:24:18;44.10;;;25.57;;
9200;SDS011;4635;48.686;9.008;2023-02-23T00:26:53;44.63;;;23.60;;
9200;SDS011;4635;48.686;9.008;2023-02-23T00:29:31;46.90;;;23.50;;
9200;SDS011;4635;48.686;9.008;2023-02-23T00:32:17;41.20;;;24.07;;
9200;SDS011;4635;48.686;9.008;2023-02-23T00:37:54;50.87;;;25.87;;
9200;SDS011;4635;48.686;9.008;2023-02-23T00:40:38;40.73;;;22.63;;
9200;SDS011;4635;48.686;9.008;2023-02-23T00:43:15;45.80;;;23.23;;
9200;SDS011;4635;48.686;9.008;2023-02-23T00:45:53;47.13;;;23.37;;
9200;SDS011;4635;48.686;9.008;2023-02-23T00:48:31;35.40;;;22.27;;
9200;SDS011;4635;48.686;9.008;2023-02-23T00:51:10;32.60;;;20.87;;
9200;SDS011;4635;48.686;9.008;2023-02-23T00:53:47;39.67;;;21.00;;
9200;SDS011;4635;48.686;9.008;2023-02-23T00:56:24;43.23;;;23.03;;
9200;SDS011;4635;48.686;9.008;2023-02-23T00:58:58;36.87;;;21.23;;
9200;SDS011;4635;48.686;9.008;2023-02-23T01:01:31;49.37;;;21.77;;
9200;SDS011;4635;48.686;9.008;2023-02-23T01:04:05;37.13;;;20.70;;
9200;SDS011;4635;48.686;9.008;2023-02-23T01:06:42;40.20;;;20.63;;
9200;SDS011;4635;48.686;9.008;2023-02-23T01:09:16;30.17;;;18.30;;
9200;SDS011;4635;48.686;9.008;2023-02-23T01:11:53;40.10;;;18.87;;
9200;SDS011;4635;48.686;9.008;2023-02-23T01:14:27;32.90;;;18.33;;
9200;SDS011;4635;48.686;9.008;2023-02-23T01:17:01;27.70;;;16.23;;
9200;SDS011;4635;48.686;9.008;2023-02-23T01:19:34;41.03;;;17.50;;
9200;SDS011;4635;48.686;9.008;2023-02-23T01:22:18;32.33;;;17.60;;
9200;SDS011;4635;48.686;9.008;2023-02-23T01:24:52;24.13;;;15.07;;
9200;SDS011;4635;48.686;9.008;2023-02-23T01:27:25;33.70;;;16.33;;
9200;SDS011;4635;48.686;9.008;2023-02-23T01:29:59;31.77;;;15.27;;
9200;SDS011;4635;48.686;9.008;2023-02-23T01:32:31;29.67;;;18.20;;
9200;SDS011;4635;48.686;9.008;2023-02-23T01:35:09;25.50;;;16.80;;
9200;SDS011;4635;48.686;9.008;2023-02-23T01:37:44;25.53;;;17.17;;
9200;SDS011;4635;48.686;9.008;2023-02-23T01:40:19;32.00;;;17.70;;
9200;SDS011;4635;48.686;9.008;2023-02-23T01:42:58;28.90;;;16.97;;
9200;SDS011;4635;48.686;9.008;2023-02-23T01:45:48;29.53;;;16.53;;
9200;SDS011;4635;48.686;9.008;2023-02-23T01:48:21;30.97;;;17.20;;
9200;SDS011;4635;48.686;9.008;2023-02-23T01:50:56;38.67;;;18.80;;
9200;SDS011;4635;48.686;9.008;2023-02-23T01:53:43;36.20;;;18.30;;
9200;SDS011;4635;48.686;9.008;2023-02-23T01:56:19;33.03;;;19.60;;
9200;SDS011;4635;48.686;9.008;2023-02-23T01:58:56;41.80;;;19.43;;
9200;SDS011;4635;48.686;9.008;2023-02-23T02:01:33;29.90;;;16.83;;
9200;SDS011;4635;48.686;9.008;2023-02-23T02:04:08;33.47;;;17.40;;
9200;SDS011;4635;48.686;9.008;2023-02-23T02:06:45;28.33;;;16.23;;
9200;SDS011;4635;48.686;9.008;2023-02-23T02:09:29;30.50;;;16.93;;
9200;SDS011;4635;48.686;9.008;2023-02-23T02:12:22;32.50;;;16.20;;
9200;SDS011;4635;48.686;9.008;2023-02-23T02:14:55;28.80;;;18.03;;
9200;SDS011;4635;48.686;9.008;2023-02-23T02:17:35;30.73;;;17.20;;
9200;SDS011;4635;48.686;9.008;2023-02-23T02:20:25;30.90;;;15.93;;
9200;SDS011;4635;48.686;9.008;2023-02-23T02:23:30;35.40;;;18.00;;
9200;SDS011;4635;48.686;9.008;2023-02-23T02:26:39;26.97;;;15.80;;
9200;SDS011;4635;48.686;9.008;2023-02-23T02:32:49;28.10;;;16.27;;
9200;SDS011;4635;48.686;9.008;2023-02-23T02:35:54;24.10;;;15.80;;
9200;SDS011;4635;48.686;9.008;2023-02-23T02:38:45;27.23;;;15.27;;
9200;SDS011;4635;48.686;9.008;2023-02-23T02:41:27;28.97;;;16.40;;
9200;SDS011;4635;48.686;9.008;2023-02-23T02:44:09;24.30;;;14.43;;
9200;SDS011;4635;48.686;9.008;2023-02-23T02:46:46;26.47;;;14.40;;
9200;SDS011;4635;48.686;9.008;2023-02-23T02:49:28;27.20;;;14.73;;
9200;SDS011;4635;48.686;9.008;2023-02-23T02:52:14;24.33;;;14.57;;
9200;SDS011;4635;48.686;9.008;2023-02-23T02:54:55;29.60;;;16.37;;
9200;SDS011;4635;48.686;9.008;2023-02-23T02:57:38;27.00;;;14.33;;
9200;SDS011;4635;48.686;9.008;2023-02-23T03:00:16;24.97;;;15.23;;
9200;SDS011;4635;48.686;9.008;2023-02-23T03:03:08;27.33;;;17.63;;
9200;SDS011;4635;48.686;9.008;2023-02-23T03:06:12;26.83;;;15.03;;
9200;SDS011;4635;48.686;9.008;2023-02-23T03:09:03;29.03;;;14.10;;
9200;SDS011;4635;48.686;9.008;2023-02-23T03:12:05;24.00;;;13.33;;
9200;SDS011;4635;48.686;9.008;2023-02-23T03:14:59;21.27;;;12.70;;
9200;SDS011;4635;48.686;9.008;2023-02-23T03:17:59;21.60;;;11.90;;
9200;SDS011;4635;48.686;9.008;2023-02-23T03:20:54;21.33;;;11.90;;
9200;SDS011;4635;48.686;9.008;2023-02-23T03:23:52;24.77;;;13.80;;
9200;SDS011;4635;48.686;9.008;2023-02-23T03:26:48;21.77;;;13.10;;
9200;SDS011;4635;48.686;9.008;2023-02-23T03:29:48;19.30;;;11.33;;
9200;SDS011;4635;48.686;9.008;2023-02-23T03:32:42;20.17;;;12.60;;
9200;SDS011;4635;48.686;9.008;2023-02-23T03:35:36;16.10;;;10.57;;
9200;SDS011;4635;48.686;9.008;2023-02-23T03:38:31;19.63;;;10.47;;
9200;SDS011;4635;48.686;9.008;2023-02-23T03:41:22;20.03;;;11.27;;
9200;SDS011;4635;48.686;9.008;2023-02-23T03:44:12;17.77;;;11.00;;
9200;SDS011;4635;48.686;9.008;2023-02-23T03:47:08;16.53;;;10.27;;
9200;SDS011;4635;48.686;9.008;2023-02-23T03:50:01;17.27;;;9.90;;
9200;SDS011;4635;48.686;9.008;2023-02-23T03:52:53;17.10;;;11.30;;
9200;SDS011;4635;48.686;9.008;2023-02-23T03:55:44;21.87;;;10.97;;
9200;SDS011;4635;48.686;9.008;2023-02-23T03:58:37;21.50;;;10.97;;
9200;SDS011;4635;48.686;9.008;2023-02-23T04:01:29;12.20;;;8.10;;
9200;SDS011;4635;48.686;9.008;2023-02-23T04:04:21;21.87;;;10.17;;
9200;SDS011;4635;48.686;9.008;2023-02-23T04:07:12;13.87;;;8.67;;
9200;SDS011;4635;48.686;9.008;2023-02-23T04:10:02;15.30;;;9.87;;
9200;SDS011;4635;48.686;9.008;2023-02-23T04:12:54;20.83;;;9.27;;
9200;SDS011;4635;48.686;9.008;2023-02-23T04:15:49;19.70;;;9.20;;
9200;SDS011;4635;48.686;9.008;2023-02-23T04:18:23;15.50;;;9.47;;
9200;SDS011;4635;48.686;9.008;2023-02-23T04:21:10;17.33;;;8.97;;
9200;SDS011;4635;48.686;9.008;2023-02-23T04:23:46;15.17;;;9.43;;
9200;SDS011;4635;48.686;9.008;2023-02-23T04:26:55;14.37;;;9.13;;
9200;SDS011;4635;48.686;9.008;2023-02-23T04:29:44;15.63;;;10.27;;
9200;SDS011;4635;48.686;9.008;2023-02-23T04:32:31;16.67;;;10.97;;
9200;SDS011;4635;48.686;9.008;2023-02-23T04:35:21;14.60;;;9.83;;
9200;SDS011;4635;48.686;9.008;2023-02-23T04:38:04;15.00;;;10.17;;
9200;SDS011;4635;48.686;9.008;2023-02-23T04:40:38;16.63;;;10.70;;
9200;SDS011;4635;48.686;9.008;2023-02-23T04:43:12;16.67;;;10.03;;
9200;SDS011;4635;48.686;9.008;2023-02-23T04:45:46;23.07;;;11.03;;
9200;SDS011;4635;48.686;9.008;2023-02-23T04:48:22;21.13;;;11.83;;
9200;SDS011;4635;48.686;9.008;2023-02-23T04:50:57;19.30;;;11.50;;
9200;SDS011;4635;48.686;9.008;2023-02-23T04:53:41;21.50;;;12.57;;
9200;SDS011;4635;48.686;9.008;2023-02-23T04:56:16;19.03;;;11.70;;
9200;SDS011;4635;48.686;9.008;2023-02-23T04:58:48;24.90;;;13.53;;
9200;SDS011;4635;48.686;9.008;2023-02-23T05:01:25;21.90;;;12.73;;
9200;SDS011;4635;48.686;9.008;2023-02-23T05:03:59;25.33;;;12.93;;
9200;SDS011;4635;48.686;9.008;2023-02-23T05:06:33;23.67;;;12.60;;
9200;SDS011;4635;48.686;9.008;2023-02-23T05:09:15;21.13;;;11.93;;
9200;SDS011;4635;48.686;9.008;2023-02-23T05:11:50;21.47;;;12.27;;
9200;SDS011;4635;48.686;9.008;2023-02-23T05:14:37;32.13;;;12.93;;
9200;SDS011;4635;48.686;9.008;2023-02-23T05:17:14;20.83;;;12.10;;
9200;SDS011;4635;48.686;9.008;2023-02-23T05:19:49;22.63;;;13.10;;
9200;SDS011;4635;48.686;9.008;2023-02-23T05:22:25;19.47;;;12.23;;
9200;SDS011;4635;48.686;9.008;2023-02-23T05:28:13;22.17;;;10.93;;
9200;SDS011;4635;48.686;9.008;2023-02-23T05:31:11;22.00;;;12.93;;
9200;SDS011;4635;48.686;9.008;2023-02-23T05:33:58;22.17;;;12.30;;
9200;SDS011;4635;48.686;9.008;2023-02-23T05:36:34;26.20;;;12.43;;
9200;SDS011;4635;48.686;9.008;2023-02-23T05:39:10;16.43;;;10.63;;
9200;SDS011;4635;48.686;9.008;2023-02-23T05:41:57;22.00;;;11.97;;
9200;SDS011;4635;48.686;9.008;2023-02-23T05:44:33;19.83;;;12.33;;
9200;SDS011;4635;48.686;9.008;2023-02-23T05:47:11;22.43;;;12.10;;
9200;SDS011;4635;48.686;9.008;2023-02-23T05:49:44;28.67;;;12.10;;
9200;SDS011;4635;48.686;9.008;2023-02-23T05:52:17;20.77;;;12.40;;
9200;SDS011;4635;48.686;9.008;2023-02-23T05:55:02;22.40;;;11.53;;
9200;SDS011;4635;48.686;9.008;2023-02-23T05:57:58;24.90;;;12.97;;
9200;SDS011;4635;48.686;9.008;2023-02-23T06:00:35;23.40;;;12.00;;
9200;SDS011;4635;48.686;9.008;2023-02-23T06:03:09;18.20;;;12.07;;
9200;SDS011;4635;48.686;9.008;2023-02-23T06:05:56;25.80;;;13.93;;
9200;SDS011;4635;48.686;9.008;2023-02-23T06:08:36;22.03;;;13.33;;
9200;SDS011;4635;48.686;9.008;2023-02-23T06:11:16;24.77;;;13.97;;
9200;SDS011;4635;48.686;9.008;2023-02-23T06:17:26;31.67;;;13.73;;
9200;SDS011;4635;48.686;9.008;2023-02-23T06:20:20;27.80;;;15.70;;
9200;SDS011;4635;48.686;9.008;2023-02-23T06:23:04;24.47;;;15.17;;
9200;SDS011;4635;48.686;9.008;2023-02-23T06:26:03;31.10;;;16.97;;
9200;SDS011;4635;48.686;9.008;2023-02-23T06:29:08;25.20;;;15.77;;
9200;SDS011;4635;48.686;9.008;2023-02-23T06:32:06;28.87;;;13.23;;
9200;SDS011;4635;48.686;9.008;2023-02-23T06:34:53;30.50;;;15.43;;
9200;SDS011;4635;48.686;9.008;2023-02-23T06:37:38;27.23;;;14.13;;
9200;SDS011;4635;48.686;9.008;2023-02-23T06:40:25;34.93;;;15.37;;
9200;SDS011;4635;48.686;9.008;2023-02-23T06:43:06;29.53;;;15.30;;
9200;SDS011;4635;48.686;9.008;2023-02-23T06:45:53;27.70;;;16.20;;
9200;SDS011;4635;48.686;9.008;2023-02-23T06:48:46;26.33;;;15.90;;
9200;SDS011;4635;48.686;9.008;2023-02-23T06:51:50;27.63;;;17.47;;
9200;SDS011;4635;48.686;9.008;2023-02-23T06:54:41;34.20;;;17.13;;
9200;SDS011;4635;48.686;9.008;2023-02-23T06:57:38;32.77;;;15.47;;
9200;SDS011;4635;48.686;9.008;2023-02-23T07:00:17;24.83;;;15.20;;
9200;SDS011;4635;48.686;9.008;2023-02-23T07:02:49;30.23;;;15.03;;
9200;SDS011;4635;48.686;9.008;2023-02-23T07:11:53;34.63;;;14.20;;
9200;SDS011;4635;48.686;9.008;2023-02-23T07:17:58;19.37;;;13.23;;
9200;SDS011;4635;48.686;9.008;2023-02-23T07:20:44;21.93;;;13.57;;
9200;SDS011;4635;48.686;9.008;2023-02-23T07:23:42;18.90;;;12.40;;
9200;SDS011;4635;48.686;9.008;2023-02-23T07:26:29;22.80;;;13.23;;
9200;SDS011;4635;48.686;9.008;2023-02-23T07:29:29;19.63;;;12.60;;
9200;SDS011;4635;48.686;9.008;2023-02-23T07:32:21;16.37;;;11.57;;
9200;SDS011;4635;48.686;9.008;2023-02-23T07:56:47;22.00;;;10.37;;
9200;SDS011;4635;48.686;9.008;2023-02-23T07:59:56;17.40;;;9.13;;
9200;SDS011;4635;48.686;9.008;2023-02-23T08:02:53;18.37;;;9.67;;
9200;SDS011;4635;48.686;9.008;2023-02-23T08:05:48;16.10;;;8.23;;
9200;SDS011;4635;48.686;9.008;2023-02-23T08:08:38;12.50;;;8.93;;
9200;SDS011;4635;48.686;9.008;2023-02-23T08:11:29;23.53;;;9.73;;
9200;SDS011;4635;48.686;9.008;2023-02-23T08:17:27;22.33;;;11.33;;
9200;SDS011;4635;48.686;9.008;2023-02-23T08:20:09;17.53;;;10.10;;
9200;SDS011;4635;48.686;9.008;2023-02-23T08:23:38;20.70;;;10.53;;
9200;SDS011;4635;48.686;9.008;2023-02-23T08:26:43;22.20;;;9.57;;
9200;SDS011;4635;48.686;9.008;2023-02-23T11:01:15;17.23;;;4.80;;
9200;SDS011;4635;48.686;9.008;2023-02-23T11:04:31;24.57;;;4.00;;
9200;SDS011;4635;48.686;9.008;2023-02-23T11:07:43;19.70;;;4.10;;
9200;SDS011;4635;48.686;9.008;2023-02-23T11:14:14;31.23;;;5.17;;
9200;SDS011;4635;48.686;9.008;2023-02-23T13:16:07;14.07;;;5.10;;
9200;SDS011;4635;48.686;9.008;2023-02-23T13:26:54;13.10;;;6.17;;
9200;SDS011;4635;48.686;9.008;2023-02-23T14:47:38;11.20;;;6.20;;
9200;SDS011;4635;48.686;9.008;2023-02-23T14:50:37;19.80;;;7.97;;
9200;SDS011;4635;48.686;9.008;2023-02-23T14:53:30;20.00;;;6.10;;
9200;SDS011;4635;48.686;9.008;2023-02-23T14:57:42;13.10;;;6.60;;
9200;SDS011;4635;48.686;9.008;2023-02-23T15:00:06;12.73;;;6.43;;
9200;SDS011;4635;48.686;9.008;2023-02-23T15:23:13;13.60;;;5.23;;
9200;SDS011;4635;48.686;9.008;2023-02-23T15:26:33;11.60;;;5.23;;
9200;SDS011;4635;48.686;9.008;2023-02-23T15:29:21;42.90;;;5.37;;
9200;SDS011;4635;48.686;9.008;2023-02-23T15:32:19;39.97;;;16.67;;
9200;SDS011;4635;48.686;9.008;2023-02-23T16:05:09;11.83;;;5.63;;
9200;SDS011;4635;48.686;9.008;2023-02-23T16:08:50;21.20;;;6.70;;
9200;SDS011;4635;48.686;9.008;2023-02-23T16:11:51;24.07;;;7.80;;
9200;SDS011;4635;48.686;9.008;2023-02-23T16:15:20;14.23;;;6.70;;
9200;SDS011;4635;48.686;9.008;2023-02-23T16:21:52;12.00;;;6.73;;
9200;SDS011;4635;48.686;9.008;2023-02-23T16:35:13;8.47;;;4.90;;
9200;SDS011;4635;48.686;9.008;2023-02-23T16:44:53;15.33;;;6.20;;
9200;SDS011;4635;48.686;9.008;2023-02-23T16:47:59;16.93;;;5.37;;
9200;SDS011;4635;48.686;9.008;2023-02-23T16:51:18;18.27;;;6.60;;
9200;SDS011;4635;48.686;9.008;2023-02-23T16:54:17;22.97;;;5.77;;
9200;SDS011;4635;48.686;9.008;2023-02-23T17:16:34;24.23;;;7.20;;
9200;SDS011;4635;48.686;9.008;2023-02-23T17:19:11;16.00;;;7.10;;
9200;SDS011;4635;48.686;9.008;2023-02-23T17:22:03;15.13;;;5.83;;
9200;SDS011;4635;48.686;9.008;2023-02-23T17:25:16;18.23;;;6.70;;
9200;SDS011;4635;48.686;9.008;2023-02-23T17:30:28;13.50;;;5.63;;
9200;SDS011;4635;48.686;9.008;2023-02-23T17:31:55;8.20;;;5.77;;
9200;SDS011;4635;48.686;9.008;2023-02-23T17:34:33;10.90;;;5.47;;
9200;SDS011;4635;48.686;9.008;2023-02-23T17:37:25;10.00;;;5.40;;
9200;SDS011;4635;48.686;9.008;2023-02-23T17:40:29;9.30;;;6.17;;
9200;SDS011;4635;48.686;9.008;2023-02-23T17:43:31;13.17;;;7.17;;
9200;SDS011;4635;48.686;9.008;2023-02-23T17:46:09;13.73;;;6.50;;
9200;SDS011;4635;48.686;9.008;2023-02-23T17:48:59;13.77;;;6.80;;
9200;SDS011;4635;48.686;9.008;2023-02-23T17:54:37;15.27;;;7.10;;
9200;SDS011;4635;48.686;9.008;2023-02-23T17:57:23;13.70;;;6.60;;
9200;SDS011;4635;48.686;9.008;2023-02-23T17:59:58;16.20;;;7.77;;
9200;SDS011;4635;48.686;9.008;2023-02-23T18:02:46;10.73;;;7.17;;
9200;SDS011;4635;48.686;9.008;2023-02-23T18:08:32;19.30;;;8.63;;
9200;SDS011;4635;48.686;9.008;2023-02-23T18:11:27;10.73;;;7.90;;
9200;SDS011;4635;48.686;9.008;2023-02-23T18:20:58;14.27;;;9.17;;
9200;SDS011;4635;48.686;9.008;2023-02-23T18:24:06;17.07;;;8.97;;
9200;SDS011;4635;48.686;9.008;2023-02-23T18:27:00;17.03;;;9.90;;
9200;SDS011;4635;48.686;9.008;2023-02-23T18:29:54;18.17;;;9.50;;
9200;SDS011;4635;48.686;9.008;2023-02-23T18:35:18;19.17;;;10.30;;
9200;SDS011;4635;48.686;9.008;2023-02-23T18:38:04;19.13;;;9.77;;
9200;SDS011;4635;48.686;9.008;2023-02-23T18:40:58;28.17;;;16.87;;
9200;SDS011;4635;48.686;9.008;2023-02-23T18:43:46;24.30;;;13.37;;
9200;SDS011;4635;48.686;9.008;2023-02-23T18:46:28;24.13;;;11.50;;
9200;SDS011;4635;48.686;9.008;2023-02-23T18:49:05;22.67;;;9.87;;
9200;SDS011;4635;48.686;9.008;2023-02-23T18:52:06;23.73;;;9.00;;
9200;SDS011;4635;48.686;9.008;2023-02-23T18:54:52;19.97;;;9.07;;
9200;SDS011;4635;48.686;9.008;2023-02-23T18:57:27;14.47;;;9.20;;
9200;SDS011;4635;48.686;9.008;2023-02-23T19:00:10;18.90;;;8.87;;
9200;SDS011;4635;48.686;9.008;2023-02-23T19:03:27;16.33;;;9.03;;
9200;SDS011;4635;48.686;9.008;2023-02-23T19:06:33;14.90;;;8.77;;
9200;SDS011;4635;48.686;9.008;2023-02-23T19:09:17;20.33;;;8.50;;
9200;SDS011;4635;48.686;9.008;2023-02-23T19:11:56;15.17;;;8.27;;
9200;SDS011;4635;48.686;9.008;2023-02-23T19:14:31;24.17;;;9.27;;
9200;SDS011;4635;48.686;9.008;2023-02-23T19:17:05;19.60;;;10.57;;
9200;SDS011;4635;48.686;9.008;2023-02-23T19:19:37;16.97;;;10.47;;
9200;SDS011;4635;48.686;9.008;2023-02-23T19:22:20;15.70;;;9.27;;
9200;SDS011;4635;48.686;9.008;2023-02-23T19:24:54;20.60;;;11.57;;
9200;SDS011;4635;48.686;9.008;2023-02-23T19:27:37;19.70;;;11.67;;
9200;SDS011;4635;48.686;9.008;2023-02-23T19:30:21;20.47;;;11.83;;
9200;SDS011;4635;48.686;9.008;2023-02-23T19:32:53;25.20;;;12.37;;
9200;SDS011;4635;48.686;9.008;2023-02-23T19:35:33;25.10;;;12.73;;
9200;SDS011;4635;48.686;9.008;2023-02-23T19:38:10;19.90;;;11.83;;
9200;SDS011;4635;48.686;9.008;2023-02-23T19:40:45;37.20;;;18.03;;
9200;SDS011;4635;48.686;9.008;2023-02-23T19:43:23;23.50;;;13.50;;
9200;SDS011;4635;48.686;9.008;2023-02-23T19:46:31;25.90;;;13.90;;
9200;SDS011;4635;48.686;9.008;2023-02-23T19:49:11;25.20;;;14.43;;
9200;SDS011;4635;48.686;9.008;2023-02-23T19:51:46;31.83;;;14.87;;
9200;SDS011;4635;48.686;9.008;2023-02-23T19:54:22;21.83;;;13.40;;
9200;SDS011;4635;48.686;9.008;2023-02-23T19:56:54;29.80;;;14.80;;
9200;SDS011;4635;48.686;9.008;2023-02-23T19:59:32;46.40;;;17.80;;
9200;SDS011;4635;48.686;9.008;2023-02-23T20:02:10;31.10;;;16.30;;
9200;SDS011;4635;48.686;9.008;2023-02-23T20:04:46;30.73;;;17.47;;
9200;SDS011;4635;48.686;9.008;2023-02-23T20:07:19;34.43;;;18.50;;
9200;SDS011;4635;48.686;9.008;2023-02-23T20:10:00;37.70;;;16.57;;
9200;SDS011;4635;48.686;9.008;2023-02-23T20:12:33;37.63;;;17.70;;
9200;SDS011;4635;48.686;9.008;2023-02-23T20:15:06;35.27;;;19.77;;
9200;SDS011;4635;48.686;9.008;2023-02-23T20:17:51;36.90;;;21.47;;
9200;SDS011;4635;48.686;9.008;2023-02-23T20:20:40;34.67;;;20.67;;
9200;SDS011;4635;48.686;9.008;2023-02-23T20:23:12;53.37;;;23.77;;
9200;SDS011;4635;48.686;9.008;2023-02-23T20:25:57;59.37;;;26.70;;
9200;SDS011;4635;48.686;9.008;2023-02-23T20:28:32;45.47;;;24.80;;
9200;SDS011;4635;48.686;9.008;2023-02-23T20:31:30;56.90;;;21.30;;
9200;SDS011;4635;48.686;9.008;2023-02-23T20:34:08;42.60;;;19.53;;
9200;SDS011;4635;48.686;9.008;2023-02-23T20:36:43;39.27;;;21.80;;
9200;SDS011;4635;48.686;9.008;2023-02-23T20:39:16;37.10;;;19.67;;
9200;SDS011;4635;48.686;9.008;2023-02-23T20:41:51;37.23;;;20.60;;
9200;SDS011;4635;48.686;9.008;2023-02-23T20:44:43;42.47;;;21.97;;
9200;SDS011;4635;48.686;9.008;2023-02-23T20:47:13;43.03;;;20.80;;
9200;SDS011;4635;48.686;9.008;2023-02-23T20:50:20;42.17;;;22.17;;
9200;SDS011;4635;48.686;9.008;2023-02-23T20:52:58;41.83;;;23.20;;
9200;SDS011;4635;48.686;9.008;2023-02-23T20:55:41;37.27;;;21.53;;
9200;SDS011;4635;48.686;9.008;2023-02-23T20:58:17;41.57;;;23.10;;
9200;SDS011;4635;48.686;9.008;2023-02-23T21:01:10;38.63;;;22.27;;
9200;SDS011;4635;48.686;9.008;2023-02-23T21:03:55;38.40;;;23.83;;
9200;SDS011;4635;48.686;9.008;2023-02-23T21:06:34;43.07;;;22.43;;
9200;SDS011;4635;48.686;9.008;2023-02-23T21:09:07;39.70;;;21.90;;
9200;SDS011;4635;48.686;9.008;2023-02-23T21:11:51;44.20;;;22.47;;
9200;SDS011;4635;48.686;9.008;2023-02-23T21:14:24;42.70;;;22.60;;
9200;SDS011;4635;48.686;9.008;2023-02-23T21:16:59;36.50;;;21.73;;
9200;SDS011;4635;48.686;9.008;2023-02-23T21:19:35;35.63;;;22.17;;
9200;SDS011;4635;48.686;9.008;2023-02-23T21:22:10;39.00;;;22.43;;
9200;SDS011;4635;48.686;9.008;2023-02-23T21:24:46;38.37;;;20.40;;
9200;SDS011;4635;48.686;9.008;2023-02-23T21:27:27;56.27;;;26.70;;
9200;SDS011;4635;48.686;9.008;2023-02-23T21:30:09;54.47;;;25.27;;
9200;SDS011;4635;48.686;9.008;2023-02-23T21:32:51;41.77;;;22.50;;
9200;SDS011;4635;48.686;9.008;2023-02-23T21:35:40;44.23;;;21.60;;
9200;SDS011;4635;48.686;9.008;2023-02-23T21:38:28;42.13;;;24.50;;
9200;SDS011;4635;48.686;9.008;2023-02-23T21:41:03;34.70;;;20.87;;
9200;SDS011;4635;48.686;9.008;2023-02-23T21:43:40;37.23;;;20.83;;
9200;SDS011;4635;48.686;9.008;2023-02-23T21:46:19;34.47;;;20.57;;
9200;SDS011;4635;48.686;9.008;2023-02-23T21:48:56;46.63;;;22.87;;
9200;SDS011;4635;48.686;9.008;2023-02-23T21:51:33;48.87;;;24.10;;
9200;SDS011;4635;48.686;9.008;2023-02-23T21:54:15;55.33;;;25.37;;
9200;SDS011;4635;48.686;9.008;2023-02-23T21:56:49;49.80;;;26.67;;
9200;SDS011;4635;48.686;9.008;2023-02-23T21:59:25;50.67;;;25.77;;
9200;SDS011;4635;48.686;9.008;2023-02-23T22:01:58;45.90;;;24.67;;
9200;SDS011;4635;48.686;9.008;2023-02-23T22:04:32;60.30;;;23.60;;
9200;SDS011;4635;48.686;9.008;2023-02-23T22:07:06;55.63;;;25.47;;
9200;SDS011;4635;48.686;9.008;2023-02-23T22:09:48;48.40;;;26.30;;
9200;SDS011;4635;48.686;9.008;2023-02-23T22:12:25;55.53;;;25.07;;
9200;SDS011;4635;48.686;9.008;2023-02-23T22:15:02;61.73;;;25.53;;
9200;SDS011;4635;48.686;9.008;2023-02-23T22:17:36;65.50;;;29.20;;
9200;SDS011;4635;48.686;9.008;2023-02-23T22:20:18;51.47;;;26.73;;
9200;SDS011;4635;48.686;9.008;2023-02-23T22:22:53;51.80;;;27.80;;
9200;SDS011;4635;48.686;9.008;2023-02-23T22:25:42;56.37;;;28.57;;
9200;SDS011;4635;48.686;9.008;2023-02-23T22:28:28;48.53;;;26.03;;
9200;SDS011;4635;48.686;9.008;2023-02-23T22:31:09;60.10;;;29.00;;
9200;SDS011;4635;48.686;9.008;2023-02-23T22:33:55;68.80;;;28.50;;
9200;SDS011;4635;48.686;9.008;2023-02-23T22:36:33;54.77;;;30.10;;
9200;SDS011;4635;48.686;9.008;2023-02-23T22:39:06;58.20;;;31.70;;
9200;SDS011;4635;48.686;9.008;2023-02-23T22:41:48;56.90;;;29.37;;
9200;SDS011;4635;48.686;9.008;2023-02-23T22:44:23;60.47;;;30.37;;
9200;SDS011;4635;48.686;9.008;2023-02-23T22:47:01;61.17;;;30.67;;
9200;SDS011;4635;48.686;9.008;2023-02-23T22:49:39;59.23;;;29.00;;
9200;SDS011;4635;48.686;9.008;2023-02-23T22:52:15;52.47;;;26.80;;
9200;SDS011;4635;48.686;9.008;2023-02-23T22:54:50;54.83;;;28.73;;
9200;SDS011;4635;48.686;9.008;2023-02-23T22:57:27;54.07;;;29.27;;
9200;SDS011;4635;48.686;9.008;2023-02-23T22:59:58;59.47;;;29.80;;
9200;SDS011;4635;48.686;9.008;2023-02-23T23:02:32;60.20;;;29.27;;
9200;SDS011;4635;48.686;9.008;2023-02-23T23:05:07;55.60;;;28.73;;
9200;SDS011;4635;48.686;9.008;2023-02-23T23:07:40;62.53;;;32.17;;
9200;SDS011;4635;48.686;9.008;2023-02-23T23:10:15;63.50;;;31.90;;
9200;SDS011;4635;48.686;9.008;2023-02-23T23:12:55;75.23;;;33.63;;
9200;SDS011;4635;48.686;9.008;2023-02-23T23:15:29;58.93;;;30.70;;
9200;SDS011;4635;48.686;9.008;2023-02-23T23:18:01;53.97;;;28.23;;
9200;SDS011;4635;48.686;9.008;2023-02-23T23:20:43;77.60;;;31.00;;
9200;SDS011;4635;48.686;9.008;2023-02-23T23:23:16;51.70;;;28.97;;
9200;SDS011;4635;48.686;9.008;2023-02-23T23:25:51;53.83;;;26.80;;
9200;SDS011;4635;48.686;9.008;2023-02-23T23:28:27;53.07;;;27.10;;
9200;SDS011;4635;48.686;9.008;2023-02-23T23:31:05;53.57;;;28.07;;
9200;SDS011;4635;48.686;9.008;2023-02-23T23:33:39;52.40;;;27.17;;
9200;SDS011;4635;48.686;9.008;2023-02-23T23:36:15;47.03;;;24.57;;
9200;SDS011;4635;48.686;9.008;2023-02-23T23:38:52;54.57;;;26.40;;
9200;SDS011;4635;48.686;9.008;2023-02-23T23:41:27;45.63;;;25.13;;
9200;SDS011;4635;48.686;9.008;2023-02-23T23:44:05;57.47;;;25.67;;
9200;SDS011;4635;48.686;9.008;2023-02-23T23:46:39;54.37;;;27.97;;
9200;SDS011;4635;48.686;9.008;2023-02-23T23:49:17;57.70;;;28.00;;
9200;SDS011;4635;48.686;9.008;2023-02-23T23:51:54;52.67;;;28.67;;
9200;SDS011;4635;48.686;9.008;2023-02-23T23:54:28;59.17;;;28.47;;
9200;SDS011;4635;48.686;9.008;2023-02-23T23:57:06;64.00;;;29.97;;
9200;SDS011;4635;48.686;9.008;2023-02-23T23:59:40;61.40;;;30.10;;
